Time;durP1;ratioP1;P1;durP2;ratioP2;P2;SDS_P1;SDS_P2;PMS_P1;PMS_P2;Temp;Humidity;BMP_temperature;BMP_pressure;BME280_temperature;BME280_humidity;BME280_pressure;Samples;Min_cycle;Max_cycle;Signal;HPM_P1;HPM_P2
2024/02/23 00:00:19;;;;;;;3.45;0.30;;;5.00;99.90;;;;;;5076659;28;20119;-65
2024/02/23 00:03:05;;;;;;;1.87;0.67;;;5.00;99.90;;;;;;5085789;28;20037;-65
2024/02/23 00:05:51;;;;;;;1.42;0.73;;;5.00;99.90;;;;;;5079497;28;20036;-65
2024/02/23 00:08:37;;;;;;;5.10;0.52;;;5.00;99.90;;;;;;5079747;28;20055;-65
2024/02/23 00:11:23;;;;;;;1.23;0.57;;;5.00;99.90;;;;;;5081539;28;20028;-65
2024/02/23 00:14:11;;;;;;;1.23;0.32;;;5.00;99.90;;;;;;5066855;28;20040;-65
2024/02/23 00:16:58;;;;;;;5.22;0.75;;;5.00;99.90;;;;;;5087806;28;20506;-65
2024/02/23 00:19:46;;;;;;;2.72;0.77;;;4.90;99.90;;;;;;5062129;28;20119;-65
2024/02/23 00:22:33;;;;;;;1.90;0.38;;;4.80;99.90;;;;;;5067890;28;20047;-65
2024/02/23 00:25:19;;;;;;;4.35;0.57;;;4.80;99.90;;;;;;5056919;28;20094;-65
2024/02/23 00:28:05;;;;;;;0.88;0.45;;;4.70;99.90;;;;;;5058911;28;20037;-66
2024/02/23 00:30:51;;;;;;;2.92;0.45;;;4.70;99.90;;;;;;5066734;28;20442;-66
2024/02/23 00:33:37;;;;;;;3.35;0.55;;;4.70;99.90;;;;;;5063934;28;20032;-65
2024/02/23 00:36:23;;;;;;;0.70;0.30;;;4.70;99.90;;;;;;5071349;28;20051;-65
2024/02/23 00:39:09;;;;;;;1.23;0.30;;;4.70;99.90;;;;;;5060082;28;20033;-65
2024/02/23 00:41:54;;;;;;;1.05;0.40;;;4.70;99.90;;;;;;5079979;28;20032;-66
2024/02/23 00:44:40;;;;;;;0.90;0.52;;;4.70;99.90;;;;;;5058821;28;20476;-65
2024/02/23 00:47:27;;;;;;;0.40;0.40;;;4.70;99.90;;;;;;5058678;28;20041;-66
2024/02/23 00:50:13;;;;;;;2.88;0.60;;;4.60;99.90;;;;;;5065379;28;20054;-66
2024/02/23 00:52:59;;;;;;;0.88;0.43;;;4.60;99.90;;;;;;5066949;28;20032;-66
2024/02/23 00:55:45;;;;;;;0.40;0.30;;;4.60;99.90;;;;;;5070689;28;20059;-66
2024/02/23 00:58:31;;;;;;;3.23;0.73;;;4.60;99.90;;;;;;5059494;28;20072;-66
2024/02/23 01:01:17;;;;;;;0.93;0.83;;;4.60;99.90;;;;;;5054491;28;20559;-66
2024/02/23 01:04:03;;;;;;;0.85;0.40;;;4.40;99.90;;;;;;5050729;28;20749;-66
2024/02/23 01:06:49;;;;;;;3.28;0.70;;;4.40;99.90;;;;;;5056039;28;20032;-66
2024/02/23 01:09:35;;;;;;;0.97;0.50;;;4.40;99.90;;;;;;5054537;28;20090;-66
2024/02/23 01:12:20;;;;;;;8.40;1.30;;;4.40;99.90;;;;;;5053429;28;20086;-66
2024/02/23 01:15:07;;;;;;;2.50;0.50;;;4.40;99.90;;;;;;5054126;28;20032;-66
2024/02/23 01:17:52;;;;;;;1.80;0.50;;;4.30;99.90;;;;;;5060925;28;20560;-66
2024/02/23 01:20:38;;;;;;;5.53;1.05;;;4.30;99.90;;;;;;5048716;28;20533;-66
2024/02/23 01:23:24;;;;;;;3.47;0.50;;;4.30;99.90;;;;;;5054738;28;20548;-66
2024/02/23 01:26:10;;;;;;;0.77;0.37;;;4.30;99.90;;;;;;5054986;28;20116;-66
2024/02/23 01:28:56;;;;;;;1.92;0.60;;;4.20;99.90;;;;;;5053560;28;20554;-66
2024/02/23 01:31:42;;;;;;;1.45;0.68;;;4.20;99.90;;;;;;5067884;28;20239;-66
2024/02/23 01:34:28;;;;;;;0.93;0.47;;;4.20;99.90;;;;;;5074776;28;20504;-66
2024/02/23 01:37:14;;;;;;;5.05;0.50;;;4.10;99.90;;;;;;5080088;28;20499;-66
2024/02/23 01:40:00;;;;;;;0.77;0.50;;;4.10;99.90;;;;;;5077199;28;20093;-66
2024/02/23 01:42:46;;;;;;;4.87;0.70;;;4.10;99.90;;;;;;5070036;28;20039;-66
2024/02/23 01:45:32;;;;;;;3.30;0.98;;;4.00;99.90;;;;;;5075811;28;20681;-66
2024/02/23 01:48:18;;;;;;;1.48;0.65;;;3.90;99.90;;;;;;5083261;28;20382;-65
2024/02/23 01:51:04;;;;;;;1.80;0.57;;;3.90;99.90;;;;;;5077182;28;20645;-65
2024/02/23 01:53:50;;;;;;;1.60;0.60;;;3.90;99.90;;;;;;5075889;28;20082;-65
2024/02/23 01:56:39;;;;;;;0.60;0.50;;;3.90;99.90;;;;;;5085174;28;20039;-65
2024/02/23 01:59:26;;;;;;;3.70;0.70;;;3.90;99.90;;;;;;5074825;28;20086;-65
2024/02/23 02:02:11;;;;;;;;;;;3.90;99.90;;;;;;5071358;28;20047;-65
2024/02/23 02:04:57;;;;;;;2.05;0.63;;;3.90;99.90;;;;;;5076975;28;20363;-65
2024/02/23 02:07:44;;;;;;;1.47;0.93;;;4.00;99.90;;;;;;5075515;28;20056;-65
2024/02/23 02:14:13;;;;;;;0.90;0.40;;;3.90;99.90;;;;;;5073478;28;20099;-65
2024/02/23 02:16:59;;;;;;;2.03;0.60;;;4.00;99.90;;;;;;5080323;28;20036;-65
2024/02/23 02:19:48;;;;;;;0.50;0.50;;;3.90;99.90;;;;;;5072316;28;20040;-65
2024/02/23 02:22:34;;;;;;;5.00;0.52;;;3.90;99.90;;;;;;5064464;28;20032;-65
2024/02/23 02:25:20;;;;;;;3.55;0.68;;;3.90;99.90;;;;;;5068602;28;20469;-65
2024/02/23 02:28:07;;;;;;;1.87;0.90;;;3.90;99.90;;;;;;5066675;28;20088;-65
2024/02/23 02:30:54;;;;;;;2.97;0.80;;;3.90;99.90;;;;;;5069112;28;20275;-65
2024/02/23 02:33:40;;;;;;;1.73;0.73;;;3.90;99.90;;;;;;5072309;28;20039;-65
2024/02/23 02:36:26;;;;;;;1.17;0.60;;;3.90;99.90;;;;;;5078502;28;20051;-65
2024/02/23 02:39:12;;;;;;;0.60;0.43;;;3.90;99.90;;;;;;5068116;28;20040;-65
2024/02/23 02:41:58;;;;;;;1.55;0.60;;;3.90;99.90;;;;;;5071770;28;20067;-65
2024/02/23 02:44:44;;;;;;;8.05;0.63;;;3.80;99.90;;;;;;5071691;28;20099;-65
2024/02/23 02:47:30;;;;;;;1.15;0.52;;;3.80;99.90;;;;;;5077629;28;20036;-65
2024/02/23 02:50:16;;;;;;;2.00;0.70;;;3.70;99.90;;;;;;5076776;28;20032;-65
2024/02/23 02:53:02;;;;;;;1.40;0.47;;;3.70;99.90;;;;;;5079478;28;20040;-65
2024/02/23 04:58:08;;;;;;;4.88;0.70;;;3.10;99.90;;;;;;5081111;28;20029;-65
2024/02/23 05:00:55;;;;;;;1.80;0.70;;;3.10;99.90;;;;;;5069620;28;20032;-65
2024/02/23 05:03:41;;;;;;;5.10;0.70;;;3.20;99.90;;;;;;5067392;28;20637;-65
2024/02/23 05:06:27;;;;;;;2.65;0.70;;;3.10;99.90;;;;;;5075346;28;20040;-65
2024/02/23 05:09:13;;;;;;;8.35;0.98;;;3.10;99.90;;;;;;5078437;28;20284;-65
2024/02/23 05:11:59;;;;;;;4.40;1.00;;;3.10;99.90;;;;;;5049537;28;20040;-65
2024/02/23 05:14:45;;;;;;;4.67;0.80;;;3.10;99.90;;;;;;5073965;28;20106;-65
2024/02/23 05:17:31;;;;;;;6.18;0.50;;;3.00;99.90;;;;;;5056579;28;20041;-65
2024/02/23 05:20:16;;;;;;;4.80;1.10;;;3.00;99.90;;;;;;5066997;28;20048;-65
2024/02/23 05:23:02;;;;;;;6.90;0.90;;;3.00;99.90;;;;;;5064583;28;20033;-65
2024/02/23 05:25:49;;;;;;;3.93;0.77;;;3.00;99.90;;;;;;5074090;28;20028;-65
2024/02/23 05:28:35;;;;;;;6.57;0.93;;;3.00;99.90;;;;;;5066445;28;20035;-65
2024/02/23 05:31:45;;;;;;;3.97;0.70;;;3.00;99.90;;;;;;5066603;28;20108;-66
2024/02/23 05:34:31;;;;;;;3.00;0.60;;;3.10;99.90;;;;;;5064320;28;20520;-65
2024/02/23 05:37:17;;;;;;;3.77;0.50;;;3.10;99.90;;;;;;5073542;28;20032;-65
2024/02/23 05:40:07;;;;;;;5.53;0.60;;;3.10;99.90;;;;;;5085227;28;20032;-65
2024/02/23 05:42:54;;;;;;;7.85;1.00;;;3.10;99.90;;;;;;5082586;28;20143;-66
2024/02/23 05:45:40;;;;;;;4.57;0.98;;;3.10;99.90;;;;;;5068626;28;20024;-65
2024/02/23 05:48:26;;;;;;;2.53;0.80;;;3.00;99.90;;;;;;5077765;28;20048;-66
2024/02/23 05:51:12;;;;;;;2.17;0.57;;;3.00;99.90;;;;;;5090403;28;20033;-66
2024/02/23 05:53:58;;;;;;;2.35;0.63;;;3.00;99.90;;;;;;5073370;28;20034;-65
2024/02/23 05:56:45;;;;;;;4.25;0.95;;;2.90;99.90;;;;;;5090463;28;20668;-65
2024/02/23 05:59:31;;;;;;;7.05;0.60;;;2.90;99.90;;;;;;5076740;28;20035;-66
2024/02/23 06:02:17;;;;;;;1.52;0.60;;;2.80;99.90;;;;;;5091919;27;20444;-65
2024/02/23 06:05:07;;;;;;;3.83;0.80;;;2.70;99.90;;;;;;5075760;28;20082;-66
2024/02/23 06:07:53;;;;;;;4.18;0.82;;;2.70;99.90;;;;;;5074907;28;20515;-66
2024/02/23 06:10:38;;;;;;;4.78;0.70;;;2.60;99.90;;;;;;5072624;28;20035;-65
2024/02/23 06:13:24;;;;;;;14.55;0.93;;;2.60;99.90;;;;;;5069719;28;20036;-66
2024/02/23 06:16:11;;;;;;;2.78;0.70;;;2.50;99.90;;;;;;5088139;28;20039;-66
2024/02/23 06:18:58;;;;;;;2.88;0.95;;;2.50;99.90;;;;;;5080955;28;20613;-66
2024/02/23 06:21:47;;;;;;;1.23;0.50;;;2.40;99.90;;;;;;5097905;28;20067;-66
2024/02/23 06:24:33;;;;;;;2.17;0.90;;;2.40;99.90;;;;;;5077984;28;20707;-65
2024/02/23 06:27:19;;;;;;;1.67;0.35;;;2.40;99.90;;;;;;5072014;27;20448;-66
2024/02/23 06:30:06;;;;;;;2.33;0.60;;;2.40;99.90;;;;;;5066600;28;20032;-66
2024/02/23 06:32:51;;;;;;;11.35;1.30;;;2.40;99.90;;;;;;5066701;28;20519;-71
2024/02/23 06:35:37;;;;;;;2.23;0.73;;;2.30;99.90;;;;;;5089493;28;20123;-66
2024/02/23 06:38:23;;;;;;;5.40;0.70;;;2.30;99.90;;;;;;5074713;28;20118;-67
2024/02/23 06:41:10;;;;;;;5.73;1.00;;;2.30;99.90;;;;;;5081579;28;20524;-66
2024/02/23 06:43:56;;;;;;;3.72;0.75;;;2.30;99.90;;;;;;5058313;28;20051;-66
2024/02/23 06:46:44;;;;;;;4.73;0.70;;;2.30;99.90;;;;;;5078254;28;20638;-66
2024/02/23 06:49:30;;;;;;;6.00;0.90;;;2.30;99.90;;;;;;5071752;28;20098;-66
2024/02/23 06:52:16;;;;;;;4.30;0.77;;;2.30;99.90;;;;;;5086005;28;20032;-65
2024/02/23 06:55:02;;;;;;;3.10;0.57;;;2.30;99.90;;;;;;5084346;28;20035;-65
2024/02/23 06:57:48;;;;;;;6.43;1.30;;;2.30;99.90;;;;;;5068327;28;20032;-65
2024/02/23 07:00:34;;;;;;;3.40;0.85;;;2.30;99.90;;;;;;5067558;28;20758;-65
2024/02/23 07:03:20;;;;;;;4.00;1.03;;;2.30;99.90;;;;;;5075738;28;20032;-68
2024/02/23 07:06:06;;;;;;;3.97;0.80;;;2.30;99.90;;;;;;5068112;28;20084;-66
2024/02/23 07:08:51;;;;;;;4.63;0.90;;;2.30;99.90;;;;;;5065391;28;20332;-65
2024/02/23 07:11:38;;;;;;;4.67;1.03;;;2.30;99.90;;;;;;5085493;28;20053;-66
2024/02/23 07:14:24;;;;;;;2.33;0.75;;;2.40;99.90;;;;;;5065878;28;20060;-65
2024/02/23 07:17:10;;;;;;;3.75;1.52;;;2.90;99.90;;;;;;5076960;28;20798;-66
2024/02/23 07:20:04;;;;;;;4.72;1.15;;;3.50;99.90;;;;;;5074357;28;20039;-66
2024/02/23 07:22:51;;;;;;;1.88;0.60;;;3.90;99.90;;;;;;5065611;28;20226;-65
2024/02/23 07:25:36;;;;;;;2.90;0.73;;;3.80;99.90;;;;;;5078709;28;20529;-66
2024/02/23 07:28:23;;;;;;;3.92;0.80;;;3.80;99.90;;;;;;5073895;28;20055;-66
2024/02/23 07:31:10;;;;;;;2.67;0.70;;;3.80;99.90;;;;;;5076399;28;20024;-66
2024/02/23 07:33:56;;;;;;;2.13;0.75;;;3.90;99.90;;;;;;5076738;28;20028;-67
2024/02/23 07:36:43;;;;;;;7.15;1.10;;;3.80;99.90;;;;;;5079852;28;20035;-67
2024/02/23 07:39:29;;;;;;;4.55;0.75;;;3.80;99.90;;;;;;5076700;28;20089;-65
2024/02/23 07:42:18;;;;;;;2.23;0.40;;;3.70;99.90;;;;;;5086311;28;20331;-66
2024/02/23 07:45:05;;;;;;;5.60;1.58;;;3.70;99.90;;;;;;5071761;28;20036;-66
2024/02/23 07:47:50;;;;;;;5.20;0.95;;;3.80;99.90;;;;;;5078396;28;20043;-66
2024/02/23 07:50:36;;;;;;;3.13;0.80;;;3.90;99.90;;;;;;5079282;28;20040;-66
2024/02/23 07:53:22;;;;;;;12.98;1.45;;;4.10;99.90;;;;;;5089237;28;20040;-66
2024/02/23 07:56:08;;;;;;;5.95;1.15;;;4.30;99.90;;;;;;5066526;28;20040;-66
2024/02/23 07:58:54;;;;;;;4.03;0.67;;;4.30;99.90;;;;;;5079037;28;20036;-66
2024/02/23 08:01:40;;;;;;;4.93;0.90;;;4.30;99.90;;;;;;5080398;28;20047;-66
2024/02/23 08:04:26;;;;;;;5.10;0.68;;;4.10;99.90;;;;;;5083712;28;20451;-66
2024/02/23 08:07:12;;;;;;;6.83;1.50;;;4.10;99.90;;;;;;5083088;28;20382;-66
2024/02/23 08:09:57;;;;;;;5.07;0.82;;;4.00;99.90;;;;;;5069575;28;20196;-66
2024/02/23 08:12:43;;;;;;;8.80;1.10;;;4.00;99.90;;;;;;5083022;28;20382;-66
2024/02/23 08:15:29;;;;;;;3.88;0.82;;;4.00;99.90;;;;;;5071167;28;20040;-65
2024/02/23 08:18:17;;;;;;;3.50;0.87;;;4.00;99.90;;;;;;5067553;28;20230;-66
2024/02/23 08:21:05;;;;;;;6.13;1.25;;;4.00;99.90;;;;;;5085684;28;20027;-66
2024/02/23 08:23:51;;;;;;;6.80;1.10;;;4.10;99.90;;;;;;5078698;28;20651;-66
2024/02/23 08:26:38;;;;;;;7.25;1.30;;;4.20;99.90;;;;;;5083134;28;20063;-66
2024/02/23 08:29:25;;;;;;;7.57;1.80;;;4.10;99.90;;;;;;5068859;28;20141;-66
2024/02/23 08:32:10;;;;;;;;;;;4.00;99.90;;;;;;5076160;28;20615;-66
2024/02/23 08:34:59;;;;;;;5.03;1.00;;;3.90;99.90;;;;;;5077262;28;19916;-66
2024/02/23 08:37:45;;;;;;;4.05;1.05;;;3.80;99.90;;;;;;5074886;28;20036;-66
2024/02/23 08:40:31;;;;;;;11.97;1.03;;;3.80;99.90;;;;;;5078394;28;20024;-65
2024/02/23 08:43:17;;;;;;;6.82;1.10;;;3.90;99.90;;;;;;5089995;28;20024;-66
2024/02/23 08:46:03;;;;;;;6.47;1.23;;;3.90;99.90;;;;;;5088859;28;20047;-66
2024/02/23 08:48:49;;;;;;;5.22;1.10;;;4.10;99.90;;;;;;5081121;28;20021;-66
2024/02/23 08:51:34;;;;;;;3.33;1.07;;;4.10;99.90;;;;;;5073113;28;20421;-66
2024/02/23 08:54:20;;;;;;;5.05;0.80;;;4.30;99.90;;;;;;5079848;28;20035;-66
2024/02/23 08:57:06;;;;;;;3.95;1.00;;;4.40;99.90;;;;;;5091710;28;20024;-66
2024/02/23 08:59:52;;;;;;;7.38;0.93;;;4.40;99.90;;;;;;5072096;28;20028;-66
2024/02/23 09:02:38;;;;;;;5.83;1.27;;;4.40;99.90;;;;;;5081511;28;20028;-66
2024/02/23 09:05:24;;;;;;;7.10;1.20;;;4.40;99.90;;;;;;5086096;28;20040;-66
2024/02/23 09:08:10;;;;;;;5.57;0.87;;;4.50;99.90;;;;;;5082570;28;20382;-66
2024/02/23 09:10:56;;;;;;;3.10;1.00;;;4.50;99.90;;;;;;5086716;28;20135;-66
2024/02/23 09:13:42;;;;;;;9.50;1.67;;;4.40;99.90;;;;;;5070604;28;20027;-66
2024/02/23 09:16:28;;;;;;;4.60;0.95;;;4.40;99.90;;;;;;5081249;28;20153;-66
2024/02/23 09:19:14;;;;;;;9.57;1.50;;;4.40;99.90;;;;;;5077572;28;20041;-65
2024/02/23 09:22:00;;;;;;;4.30;1.33;;;4.40;99.90;;;;;;5084889;28;20122;-66
2024/02/23 09:24:46;;;;;;;9.10;1.63;;;4.50;99.90;;;;;;5074650;28;20116;-66
2024/02/23 09:27:32;;;;;;;7.13;1.02;;;4.50;99.90;;;;;;5083086;28;20071;-66
2024/02/23 09:30:19;;;;;;;8.80;2.53;;;4.50;99.90;;;;;;5075314;28;20067;-66
2024/02/23 09:33:05;;;;;;;8.23;1.48;;;4.60;99.90;;;;;;5088015;28;20024;-66
2024/02/23 09:35:51;;;;;;;9.90;1.50;;;4.70;99.90;;;;;;5075730;28;20036;-66
2024/02/23 09:38:37;;;;;;;6.40;1.00;;;4.60;99.90;;;;;;5077237;28;20028;-66
2024/02/23 09:41:23;;;;;;;7.32;1.65;;;4.70;99.90;;;;;;5083811;28;20093;-66
2024/02/23 09:44:10;;;;;;;8.88;1.02;;;4.60;99.90;;;;;;5079005;28;20029;-66
2024/02/23 09:46:56;;;;;;;;;;;4.70;99.90;;;;;;5076995;28;20041;-66
2024/02/23 09:49:42;;;;;;;6.55;1.17;;;4.60;99.90;;;;;;5078791;28;20435;-66
2024/02/23 09:52:28;;;;;;;6.27;1.07;;;4.70;99.90;;;;;;5082882;28;20035;-66
2024/02/23 09:55:14;;;;;;;8.77;1.27;;;4.70;99.90;;;;;;5079785;28;20059;-66
2024/02/23 09:58:01;;;;;;;6.80;1.00;;;4.80;99.90;;;;;;5087858;28;20560;-66
2024/02/23 10:00:47;;;;;;;8.93;0.98;;;4.80;99.90;;;;;;5068651;28;20056;-66
2024/02/23 10:03:33;;;;;;;9.23;1.58;;;5.00;99.90;;;;;;5070466;28;20032;-66
2024/02/23 10:06:19;;;;;;;5.13;0.80;;;5.00;99.90;;;;;;5090230;28;20509;-66
2024/02/23 10:09:05;;;;;;;5.63;0.90;;;4.90;99.90;;;;;;5082014;28;20472;-66
2024/02/23 10:11:54;;;;;;;4.18;0.93;;;5.00;99.90;;;;;;5076130;28;20044;-68
2024/02/23 10:14:41;;;;;;;8.15;1.40;;;4.90;99.90;;;;;;5067720;28;20549;-68
2024/02/23 10:17:27;;;;;;;4.97;0.90;;;5.00;99.90;;;;;;5072677;28;20040;-68
2024/02/23 10:20:13;;;;;;;4.60;0.73;;;5.00;99.90;;;;;;5068592;28;20040;-67
2024/02/23 10:22:59;;;;;;;7.43;1.08;;;5.10;99.90;;;;;;5073579;28;20056;-67
2024/02/23 10:25:45;;;;;;;8.15;1.10;;;5.20;99.90;;;;;;5063703;28;20043;-67
2024/02/23 10:28:31;;;;;;;5.70;1.02;;;5.40;99.90;;;;;;5083049;28;20038;-67
2024/02/23 10:31:17;;;;;;;6.07;1.27;;;5.40;99.90;;;;;;5083368;28;20262;-67
2024/02/23 10:34:14;;;;;;;5.93;1.65;;;5.40;99.90;;;;;;5075704;28;20027;-68
2024/02/23 10:37:00;;;;;;;6.20;1.00;;;5.40;99.90;;;;;;5068153;28;20032;-67
2024/02/23 10:39:46;;;;;;;4.07;1.00;;;5.50;99.90;;;;;;5064239;28;20071;-66
2024/02/23 10:42:35;;;;;;;9.18;1.15;;;5.60;99.90;;;;;;5076580;28;20503;-66
2024/02/23 10:45:21;;;;;;;8.68;0.95;;;5.60;99.90;;;;;;5068976;28;20043;-66
2024/02/23 10:48:09;;;;;;;4.72;1.10;;;5.70;99.90;;;;;;5080685;28;20688;-66
2024/02/23 10:50:58;;;;;;;3.78;0.77;;;5.80;99.90;;;;;;5065155;28;20032;-69
2024/02/23 10:53:46;;;;;;;6.00;0.95;;;5.80;99.90;;;;;;5074280;28;20469;-68
2024/02/23 10:56:32;;;;;;;5.63;1.00;;;5.70;99.90;;;;;;5073894;28;20046;-66
2024/02/23 10:59:19;;;;;;;4.78;1.08;;;5.70;99.90;;;;;;5062449;28;20033;-66
2024/02/23 11:02:06;;;;;;;8.98;1.63;;;5.60;99.90;;;;;;5076100;28;20516;-66
2024/02/23 11:04:54;;;;;;;8.20;1.95;;;5.50;99.90;;;;;;5066339;28;20044;-68
2024/02/23 11:07:40;;;;;;;7.15;1.30;;;5.60;99.90;;;;;;5060674;28;20029;-67
2024/02/23 11:10:27;;;;;;;4.73;0.97;;;5.60;99.90;;;;;;5064946;28;20134;-68
2024/02/23 11:13:15;;;;;;;5.55;1.02;;;5.50;99.90;;;;;;5064736;28;20028;-67
2024/02/23 11:16:05;;;;;;;13.73;2.28;;;5.60;99.90;;;;;;5075583;28;20476;-68
2024/02/23 11:19:04;;;;;;;5.03;1.08;;;5.60;99.90;;;;;;5061458;28;20732;-68
2024/02/23 11:21:53;;;;;;;3.58;0.80;;;5.70;99.90;;;;;;5077489;28;20507;-68
2024/02/23 11:24:46;;;;;;;9.05;1.10;;;5.80;99.90;;;;;;5070335;28;20557;-68
2024/02/23 11:27:33;;;;;;;4.28;0.80;;;5.70;99.90;;;;;;5071095;28;20036;-66
2024/02/23 11:30:19;;;;;;;5.10;1.00;;;5.70;99.90;;;;;;5070421;28;20780;-68
2024/02/23 11:33:08;;;;;;;1.60;0.45;;;5.70;99.90;;;;;;5065165;28;20026;-68
2024/02/23 11:36:04;;;;;;;6.47;1.05;;;5.60;99.90;;;;;;5058701;28;20035;-68
2024/02/23 11:38:53;;;;;;;4.22;1.33;;;5.70;99.90;;;;;;5070381;28;20100;-68
2024/02/23 11:41:43;;;;;;;3.53;0.80;;;5.70;99.90;;;;;;5070400;28;20063;-68
2024/02/23 11:44:29;;;;;;;5.18;0.65;;;5.80;99.90;;;;;;5059155;28;20036;-68
2024/02/23 11:47:16;;;;;;;7.03;0.90;;;5.70;99.90;;;;;;5068411;28;20044;-69
2024/02/23 11:50:03;;;;;;;7.38;1.25;;;5.70;99.90;;;;;;5068987;28;20040;-68
2024/02/23 11:52:49;;;;;;;2.90;0.70;;;5.70;99.90;;;;;;5072394;28;20039;-67
2024/02/23 11:55:35;;;;;;;4.00;0.80;;;5.70;99.90;;;;;;5066066;28;20071;-67
2024/02/23 11:58:21;;;;;;;6.35;1.23;;;5.70;99.90;;;;;;5071765;28;20032;-64
2024/02/23 12:01:07;;;;;;;5.18;1.05;;;6.00;99.90;;;;;;5065499;28;20091;-65
2024/02/23 12:03:53;;;;;;;4.95;1.00;;;5.90;99.90;;;;;;5052412;28;20550;-64
2024/02/23 12:06:40;;;;;;;4.03;0.70;;;5.90;99.90;;;;;;5069812;28;20048;-64
2024/02/23 12:09:26;;;;;;;;;;;5.70;99.90;;;;;;5073437;28;20029;-67
2024/02/23 12:12:12;;;;;;;4.53;0.80;;;5.60;99.90;;;;;;5062965;28;20589;-67
2024/02/23 12:14:58;;;;;;;7.15;1.55;;;5.70;99.90;;;;;;5067529;28;20024;-67
2024/02/23 12:17:48;;;;;;;4.47;1.83;;;5.60;99.90;;;;;;5074288;28;20058;-67
2024/02/23 12:20:35;;;;;;;3.13;0.60;;;5.60;99.90;;;;;;5068802;28;20480;-67
2024/02/23 12:23:21;;;;;;;5.03;0.80;;;5.80;99.90;;;;;;5072705;28;20028;-67
2024/02/23 12:26:07;;;;;;;4.78;1.05;;;5.80;99.90;;;;;;5075706;28;20043;-67
2024/02/23 12:29:00;;;;;;;4.80;0.73;;;5.70;99.90;;;;;;5072704;28;20024;-67
2024/02/23 12:31:46;;;;;;;7.13;0.85;;;5.80;99.90;;;;;;5064607;28;20534;-67
2024/02/23 12:34:34;;;;;;;4.68;0.80;;;5.80;99.90;;;;;;5077086;28;20027;-67
2024/02/23 12:37:23;;;;;;;4.30;1.33;;;5.90;99.90;;;;;;5073197;28;20114;-67
2024/02/23 12:40:09;;;;;;;3.53;0.90;;;5.80;99.90;;;;;;5073887;28;20432;-67
2024/02/23 12:42:55;;;;;;;4.45;1.35;;;5.90;99.90;;;;;;5078483;28;20627;-67
2024/02/23 12:45:41;;;;;;;3.30;0.80;;;5.80;99.90;;;;;;5081989;28;20028;-67
2024/02/23 12:48:27;;;;;;;4.95;1.02;;;5.80;99.90;;;;;;5076364;28;20047;-67
2024/02/23 12:51:13;;;;;;;5.30;0.90;;;6.00;99.90;;;;;;5080918;28;20052;-67
2024/02/23 12:56:35;;;;;;;4.30;1.00;;;6.00;99.90;;;;;;5086650;22;20044;-64
2024/02/23 12:59:21;;;;;;;8.77;1.17;;;5.90;99.90;;;;;;5077441;28;20085;-64
2024/02/23 13:02:09;;;;;;;10.15;1.00;;;6.10;99.90;;;;;;5081229;28;20393;-64
2024/02/23 13:04:54;;;;;;;6.63;1.45;;;6.00;99.90;;;;;;5076598;28;20111;-64
2024/02/23 13:07:42;;;;;;;3.45;0.90;;;5.90;99.90;;;;;;5075767;28;20328;-64
2024/02/23 13:10:28;;;;;;;5.88;1.35;;;5.90;99.90;;;;;;5074515;28;20024;-64
2024/02/23 13:13:17;;;;;;;8.05;1.20;;;6.00;99.90;;;;;;5080561;28;20043;-64
2024/02/23 13:16:03;;;;;;;8.40;1.17;;;5.90;99.90;;;;;;5079463;28;20048;-64
2024/02/23 13:18:49;;;;;;;3.40;0.93;;;5.80;99.90;;;;;;5082655;28;20039;-64
2024/02/23 13:21:35;;;;;;;14.88;4.07;;;5.80;99.90;;;;;;5082394;28;20054;-64
2024/02/23 13:24:20;;;;;;;32.23;5.20;;;5.80;99.90;;;;;;5073301;28;20063;-64
2024/02/23 13:27:06;;;;;;;12.93;2.60;;;5.80;99.90;;;;;;5072841;28;20500;-64
2024/02/23 13:29:52;;;;;;;7.63;0.93;;;5.70;99.90;;;;;;5075324;28;20028;-65
2024/02/23 13:32:38;;;;;;;3.85;1.00;;;5.60;99.90;;;;;;5068492;28;20043;-64
2024/02/23 13:35:24;;;;;;;6.40;1.50;;;5.50;99.90;;;;;;5074565;28;20032;-64
2024/02/23 13:38:10;;;;;;;4.57;0.73;;;5.50;99.90;;;;;;5074208;28;20501;-64
2024/02/23 13:40:56;;;;;;;5.25;1.35;;;5.60;99.90;;;;;;5075392;28;20110;-64
2024/02/23 13:43:42;;;;;;;5.97;1.02;;;5.60;99.90;;;;;;5074886;28;21424;-64
2024/02/23 13:46:28;;;;;;;4.90;0.80;;;5.70;99.90;;;;;;5082554;28;20515;-64
2024/02/23 13:49:14;;;;;;;2.58;0.90;;;5.90;99.90;;;;;;5081547;28;20090;-64
2024/02/23 13:52:00;;;;;;;2.67;1.00;;;6.00;99.90;;;;;;5076504;28;20032;-64
2024/02/23 13:54:46;;;;;;;7.32;1.63;;;6.00;99.90;;;;;;5072472;28;20036;-64
2024/02/23 13:57:32;;;;;;;8.13;1.30;;;6.20;99.90;;;;;;5074425;28;20036;-64
2024/02/23 14:00:19;;;;;;;5.03;0.70;;;6.20;99.90;;;;;;5072810;28;20063;-64
2024/02/23 14:03:06;;;;;;;7.03;1.50;;;6.20;99.90;;;;;;5075925;28;20371;-64
2024/02/23 14:05:51;;;;;;;7.70;1.20;;;6.20;99.90;;;;;;5080039;28;20038;-64
2024/02/23 14:08:38;;;;;;;4.75;0.80;;;6.00;99.90;;;;;;5070059;28;20643;-64
2024/02/23 14:11:24;;;;;;;3.25;1.00;;;5.90;99.90;;;;;;5074942;28;20110;-64
2024/02/23 14:14:10;;;;;;;8.10;2.15;;;5.70;99.90;;;;;;5078034;28;20039;-64
2024/02/23 14:16:55;;;;;;;7.90;0.90;;;5.60;99.90;;;;;;5080751;28;20416;-64
2024/02/23 14:19:41;;;;;;;5.80;1.30;;;5.50;99.90;;;;;;5070835;28;20083;-64
2024/02/23 14:22:27;;;;;;;5.13;0.88;;;5.50;99.90;;;;;;5077317;28;20032;-64
2024/02/23 14:25:13;;;;;;;9.40;1.60;;;5.50;99.90;;;;;;5069829;28;20443;-64
2024/02/23 14:27:59;;;;;;;5.90;1.75;;;5.40;99.90;;;;;;5075638;28;20376;-64
2024/02/23 14:30:46;;;;;;;3.97;0.93;;;5.40;99.90;;;;;;5061610;28;20606;-64
2024/02/23 14:33:32;;;;;;;4.32;0.93;;;5.50;99.90;;;;;;5072681;28;20046;-64
2024/02/23 14:36:18;;;;;;;4.03;1.00;;;5.50;99.90;;;;;;5070739;28;20036;-64
2024/02/23 14:39:05;;;;;;;9.13;1.10;;;5.40;99.90;;;;;;5075967;28;20555;-64
2024/02/23 14:41:50;;;;;;;2.45;1.00;;;5.30;99.90;;;;;;5081081;28;20035;-64
2024/02/23 14:44:36;;;;;;;5.10;0.68;;;5.20;99.90;;;;;;5076922;28;20520;-64
2024/02/23 14:47:22;;;;;;;4.35;0.82;;;5.20;99.90;;;;;;5077945;28;20105;-64
2024/02/23 14:50:08;;;;;;;6.15;0.90;;;5.10;99.90;;;;;;5073833;28;20412;-64
2024/02/23 14:52:54;;;;;;;2.67;0.85;;;5.20;99.90;;;;;;5072235;28;20029;-64
2024/02/23 14:55:40;;;;;;;3.03;0.80;;;5.10;99.90;;;;;;5080016;28;20040;-65
2024/02/23 14:58:26;;;;;;;4.32;0.70;;;5.00;99.90;;;;;;5080471;28;20036;-64
2024/02/23 15:01:12;;;;;;;6.50;1.15;;;5.00;99.90;;;;;;5079767;28;20032;-64
2024/02/23 15:03:58;;;;;;;3.13;0.63;;;5.00;99.90;;;;;;5071672;28;20037;-64
2024/02/23 15:06:44;;;;;;;2.63;0.88;;;5.00;99.90;;;;;;5076511;28;20285;-64
2024/02/23 15:09:30;;;;;;;3.92;1.25;;;4.90;99.90;;;;;;5079583;28;20024;-64
2024/02/23 15:12:16;;;;;;;2.45;0.75;;;4.90;99.90;;;;;;5067397;28;20032;-64
2024/02/23 15:15:03;;;;;;;2.83;1.00;;;4.90;99.90;;;;;;5072694;28;20052;-64
2024/02/23 15:17:50;;;;;;;7.47;0.95;;;4.80;99.90;;;;;;5079866;28;20032;-64
2024/02/23 15:20:36;;;;;;;8.18;1.25;;;4.80;99.90;;;;;;5076177;28;20089;-64
2024/02/23 15:23:23;;;;;;;5.43;0.97;;;4.80;99.90;;;;;;5074508;28;20032;-64
2024/02/23 15:26:09;;;;;;;2.35;0.60;;;4.80;99.90;;;;;;5072496;28;20561;-64
2024/02/23 15:28:55;;;;;;;1.48;0.60;;;4.90;99.90;;;;;;5081075;28;20056;-64
2024/02/23 15:31:42;;;;;;;2.72;0.90;;;4.80;99.90;;;;;;5075942;28;20032;-64
2024/02/23 15:34:28;;;;;;;6.20;0.70;;;4.90;99.90;;;;;;5074859;28;20024;-64
2024/02/23 15:37:13;;;;;;;3.90;0.85;;;4.90;99.90;;;;;;5077388;28;20044;-63
2024/02/23 15:40:00;;;;;;;4.25;0.95;;;4.80;99.90;;;;;;5073902;28;20560;-63
2024/02/23 15:42:46;;;;;;;3.90;1.20;;;4.90;99.90;;;;;;5079251;28;20051;-64
2024/02/23 15:45:31;;;;;;;10.77;2.17;;;4.90;99.90;;;;;;5077553;28;20548;-65
2024/02/23 15:48:17;;;;;;;2.40;1.02;;;5.00;99.90;;;;;;5077052;28;20119;-64
2024/02/23 15:51:03;;;;;;;7.90;1.50;;;5.10;99.90;;;;;;5079839;28;20032;-64
2024/02/23 15:53:49;;;;;;;6.18;1.02;;;5.20;99.90;;;;;;5084219;28;20056;-64
2024/02/23 15:56:35;;;;;;;4.20;0.60;;;5.20;99.90;;;;;;5078429;28;20642;-64
2024/02/23 15:59:21;;;;;;;3.25;1.05;;;5.20;99.90;;;;;;5076544;28;20063;-64
2024/02/23 16:02:07;;;;;;;4.72;0.80;;;5.20;99.90;;;;;;5076542;28;20032;-65
2024/02/23 16:04:53;;;;;;;7.22;0.80;;;5.20;99.90;;;;;;5081074;28;20031;-64
2024/02/23 16:07:39;;;;;;;4.22;0.85;;;5.20;99.90;;;;;;5064989;28;20554;-64
2024/02/23 16:10:25;;;;;;;5.00;1.05;;;5.10;99.90;;;;;;5075975;28;20032;-64
2024/02/23 16:13:10;;;;;;;1.83;0.68;;;5.10;99.90;;;;;;5082375;28;20114;-64
2024/02/23 16:15:56;;;;;;;3.95;0.70;;;5.10;99.90;;;;;;5075538;28;20024;-64
2024/02/23 16:18:42;;;;;;;5.65;0.75;;;5.10;99.90;;;;;;5079944;28;20030;-64
2024/02/23 16:21:29;;;;;;;3.43;0.83;;;5.10;99.90;;;;;;5076177;28;20032;-64
2024/02/23 16:24:15;;;;;;;2.40;0.82;;;5.10;99.90;;;;;;5079697;28;20043;-64
2024/02/23 16:27:01;;;;;;;3.65;1.17;;;5.00;99.90;;;;;;5078516;28;20047;-65
2024/02/23 16:29:46;;;;;;;3.20;0.68;;;5.00;99.90;;;;;;5077774;28;20032;-64
2024/02/23 16:32:32;;;;;;;4.68;0.98;;;4.90;99.90;;;;;;5080049;28;20093;-64
2024/02/23 16:35:18;;;;;;;1.95;0.65;;;4.80;99.90;;;;;;5069154;28;20079;-64
2024/02/23 16:38:04;;;;;;;3.60;0.83;;;4.80;99.90;;;;;;5078086;28;20078;-64
2024/02/23 16:40:50;;;;;;;2.97;1.27;;;4.70;99.90;;;;;;5077016;28;20064;-64
2024/02/23 16:43:36;;;;;;;2.15;0.88;;;4.70;99.90;;;;;;5083941;28;20298;-64
2024/02/23 16:46:22;;;;;;;5.20;1.75;;;4.60;99.90;;;;;;5073872;28;20416;-64